Nautilus — ISPC — position and weather

sailwx.info

Track history (hours):
 
Tides and Currents Weather Stations Pressure Air Temp Water Temp Dewpoint Dewpoint Depression Visibility Wind Speed Wind Dir Waves Ship Positions

Nautilus

Last reported at 2016-May-26 16:17 UTC. Time now 2016-May-26 18:28 UTC.
Position N 42°49' E 010°12'.

Length 25 m.

Type: Ship. MMSI: 247205700.

Date/timePositionNaut miles runAvg speedWind from/ knotsBaromVisibWave heightAir tempDewpointWater temp
2016-May-26 16:17N 42°49' E 010°12'3 4.3
2016-May-26 15:33N 42°49' E 010°08'3 1.6
2016-May-26 13:33N 42°48' E 010°12'0 0.2
2016-May-26 12:29N 42°49' E 010°12'0 0.0
2016-May-25 16:18N 42°49' E 010°12'3 4.1
2016-May-25 15:33N 42°49' E 010°08'0 0.1
2016-May-25 14:04N 42°48' E 010°08'3 1.6
2016-May-25 12:12N 42°48' E 010°12'  
2016-May-22 16:14N 42°49' E 010°12'3 1.6
2016-May-22 14:08N 42°48' E 010°07'3 5.6
2016-May-22 13:31N 42°48' E 010°12'0 0.0
2016-May-22 12:32N 42°48' E 010°12'0 0.1
2016-May-22 11:33N 42°48' E 010°12'6 5.0
2016-May-22 10:23N 42°49' E 010°20'0 0.2
2016-May-22 08:11N 42°49' E 010°19'2 3.9
2016-May-22 07:33N 42°50' E 010°16'4 3.6
2016-May-22 06:33N 42°49' E 010°12'0 0.0
2016-May-22 05:33N 42°49' E 010°12'0 0.0
2016-May-22 04:29N 42°49' E 010°12'0 0.0
2016-May-22 03:33N 42°49' E 010°12'0 0.0
2016-May-22 02:33N 42°49' E 010°12'0 0.0
2016-May-22 00:33N 42°49' E 010°12'0 0.0
2016-May-21 23:33N 42°49' E 010°12'0 0.0
2016-May-21 22:33N 42°49' E 010°12'0 0.0
2016-May-21 21:30N 42°49' E 010°12'0 0.0
2016-May-21 20:18N 42°49' E 010°12'0 0.0
2016-May-21 19:33N 42°49' E 010°12'0 0.0
2016-May-21 18:33N 42°49' E 010°12'0 0.0
2016-May-21 17:31N 42°49' E 010°12'0 0.0
2016-May-21 16:33N 42°49' E 010°12'2 2.3
2016-May-21 15:33N 42°49' E 010°09'3 2.8
2016-May-21 14:25N 42°46' E 010°06'5 5.7
2016-May-21 13:34N 42°48' E 010°12'0 0.0
2016-May-21 10:28N 42°48' E 010°12'0 0.0
2016-May-21 09:31N 42°48' E 010°12'5 4.4
2016-May-21 08:27N 42°50' E 010°18'5 0.1
2016-May-19 13:20N 42°48' E 010°12'0 0.1
2016-May-19 11:26N 42°49' E 010°12'0 0.0
2016-May-19 10:33N 42°49' E 010°12'0 0.0
2016-May-18 20:20N 42°49' E 010°12'0 0.0
2016-May-18 19:33N 42°49' E 010°12'0 0.0
2016-May-18 16:16N 42°49' E 010°12'0 0.1
2016-May-18 13:28N 42°48' E 010°12'0 0.1
2016-May-18 12:33N 42°48' E 010°12'0 0.1
2016-May-18 11:33N 42°49' E 010°12'0 0.0
2016-May-18 10:33N 42°49' E 010°12'0 0.0
2016-May-18 09:33N 42°49' E 010°12'0 0.0
2016-May-18 08:34N 42°49' E 010°12'0 0.0
2016-May-18 07:33N 42°49' E 010°12'0 0.0
2016-May-18 06:33N 42°49' E 010°12'0 0.0
2016-May-18 05:33N 42°49' E 010°12'0 0.0
2016-May-18 04:31N 42°49' E 010°12'0 0.0
2016-May-18 03:33N 42°49' E 010°12'0 0.0
2016-May-18 02:29N 42°49' E 010°12'0 0.0
2016-May-18 01:32N 42°49' E 010°12'0 0.0
2016-May-18 00:11N 42°49' E 010°12'0 0.0
2016-May-17 23:30N 42°49' E 010°12'0 0.0
2016-May-17 22:33N 42°49' E 010°12'0 0.0
2016-May-17 21:33N 42°49' E 010°12'0 0.0
2016-May-17 20:33N 42°49' E 010°12'0 0.0
2016-May-17 19:32N 42°49' E 010°12'0 0.0
2016-May-17 18:33N 42°49' E 010°12'0 0.0
2016-May-17 17:33N 42°49' E 010°12'0 0.0
2016-May-17 16:33N 42°49' E 010°12'3 2.8
2016-May-17 15:33N 42°49' E 010°08'2 1.2
2016-May-17 14:08N 42°48' E 010°06'4 6.8
2016-May-17 13:32N 42°48' E 010°12'0 0.0
2016-May-17 12:32N 42°48' E 010°12'0 0.2
2016-May-17 11:33N 42°49' E 010°12'1 0.2
2016-May-17 07:11N 42°49' E 010°13'1 1.7
2016-May-17 06:32N 42°49' E 010°12'0 0.0
2016-May-17 03:20N 42°49' E 010°12'0 0.0
2016-May-17 02:20N 42°49' E 010°12'0 0.0
2016-May-17 01:33N 42°49' E 010°12'0 0.0
2016-May-16 19:24N 42°49' E 010°12'0 0.0
2016-May-16 18:32N 42°49' E 010°12'0 0.0
2016-May-16 17:32N 42°49' E 010°12'0 0.0
2016-May-16 16:32N 42°49' E 010°12'  
Track history (hours):
 
Tides and Currents Weather Stations Pressure Air Temp Water Temp Dewpoint Dewpoint Depression Visibility Wind Speed Wind Dir Waves Ship Positions

Nautilus

Last reported at 2016-May-26 16:17 UTC. Time now 2016-May-26 18:28 UTC.
Position N 42°49' E 010°12'.

Length 25 m.

Type: Ship. MMSI: 247205700.

Date/timePositionNaut miles runAvg speedWind from/ knotsBaromVisibWave heightAir tempDewpointWater temp
2016-May-26 16:17N 42°49' E 010°12'3 4.3
2016-May-26 15:33N 42°49' E 010°08'3 1.6
2016-May-26 13:33N 42°48' E 010°12'0 0.2
2016-May-26 12:29N 42°49' E 010°12'0 0.0
2016-May-25 16:18N 42°49' E 010°12'3 4.1
2016-May-25 15:33N 42°49' E 010°08'0 0.1
2016-May-25 14:04N 42°48' E 010°08'3 1.6
2016-May-25 12:12N 42°48' E 010°12'  
2016-May-22 16:14N 42°49' E 010°12'3 1.6
2016-May-22 14:08N 42°48' E 010°07'3 5.6
2016-May-22 13:31N 42°48' E 010°12'0 0.0
2016-May-22 12:32N 42°48' E 010°12'0 0.1
2016-May-22 11:33N 42°48' E 010°12'6 5.0
2016-May-22 10:23N 42°49' E 010°20'0 0.2
2016-May-22 08:11N 42°49' E 010°19'2 3.9
2016-May-22 07:33N 42°50' E 010°16'4 3.6
2016-May-22 06:33N 42°49' E 010°12'0 0.0
2016-May-22 05:33N 42°49' E 010°12'0 0.0
2016-May-22 04:29N 42°49' E 010°12'0 0.0
2016-May-22 03:33N 42°49' E 010°12'0 0.0
2016-May-22 02:33N 42°49' E 010°12'0 0.0
2016-May-22 00:33N 42°49' E 010°12'0 0.0
2016-May-21 23:33N 42°49' E 010°12'0 0.0
2016-May-21 22:33N 42°49' E 010°12'0 0.0
2016-May-21 21:30N 42°49' E 010°12'0 0.0
2016-May-21 20:18N 42°49' E 010°12'0 0.0
2016-May-21 19:33N 42°49' E 010°12'0 0.0
2016-May-21 18:33N 42°49' E 010°12'0 0.0
2016-May-21 17:31N 42°49' E 010°12'0 0.0
2016-May-21 16:33N 42°49' E 010°12'2 2.3
2016-May-21 15:33N 42°49' E 010°09'3 2.8
2016-May-21 14:25N 42°46' E 010°06'5 5.7
2016-May-21 13:34N 42°48' E 010°12'0 0.0
2016-May-21 10:28N 42°48' E 010°12'0 0.0
2016-May-21 09:31N 42°48' E 010°12'5 4.4
2016-May-21 08:27N 42°50' E 010°18'5 0.1
2016-May-19 13:20N 42°48' E 010°12'0 0.1
2016-May-19 11:26N 42°49' E 010°12'0 0.0
2016-May-19 10:33N 42°49' E 010°12'0 0.0
2016-May-18 20:20N 42°49' E 010°12'0 0.0
2016-May-18 19:33N 42°49' E 010°12'0 0.0
2016-May-18 16:16N 42°49' E 010°12'0 0.1
2016-May-18 13:28N 42°48' E 010°12'0 0.1
2016-May-18 12:33N 42°48' E 010°12'0 0.1
2016-May-18 11:33N 42°49' E 010°12'0 0.0
2016-May-18 10:33N 42°49' E 010°12'0 0.0
2016-May-18 09:33N 42°49' E 010°12'0 0.0
2016-May-18 08:34N 42°49' E 010°12'0 0.0
2016-May-18 07:33N 42°49' E 010°12'0 0.0
2016-May-18 06:33N 42°49' E 010°12'0 0.0
2016-May-18 05:33N 42°49' E 010°12'0 0.0
2016-May-18 04:31N 42°49' E 010°12'0 0.0
2016-May-18 03:33N 42°49' E 010°12'0 0.0
2016-May-18 02:29N 42°49' E 010°12'0 0.0
2016-May-18 01:32N 42°49' E 010°12'0 0.0
2016-May-18 00:11N 42°49' E 010°12'0 0.0
2016-May-17 23:30N 42°49' E 010°12'0 0.0
2016-May-17 22:33N 42°49' E 010°12'0 0.0
2016-May-17 21:33N 42°49' E 010°12'0 0.0
2016-May-17 20:33N 42°49' E 010°12'0 0.0
2016-May-17 19:32N 42°49' E 010°12'0 0.0
2016-May-17 18:33N 42°49' E 010°12'0 0.0
2016-May-17 17:33N 42°49' E 010°12'0 0.0
2016-May-17 16:33N 42°49' E 010°12'3 2.8
2016-May-17 15:33N 42°49' E 010°08'2 1.2
2016-May-17 14:08N 42°48' E 010°06'4 6.8
2016-May-17 13:32N 42°48' E 010°12'0 0.0
2016-May-17 12:32N 42°48' E 010°12'0 0.2
2016-May-17 11:33N 42°49' E 010°12'1 0.2
2016-May-17 07:11N 42°49' E 010°13'1 1.7
2016-May-17 06:32N 42°49' E 010°12'0 0.0
2016-May-17 03:20N 42°49' E 010°12'0 0.0
2016-May-17 02:20N 42°49' E 010°12'0 0.0
2016-May-17 01:33N 42°49' E 010°12'0 0.0
2016-May-16 19:24N 42°49' E 010°12'0 0.0
2016-May-16 18:32N 42°49' E 010°12'0 0.0
2016-May-16 17:32N 42°49' E 010°12'0 0.0
2016-May-16 16:32N 42°49' E 010°12'  

Dump ship's entire track history